sensor_id;sensor_type;location;lat;lon;timestamp;temperature;humidity
23869;DHT22;12115;47.128;15.422;2023-03-31T00:01:08;8.70;99.90
23869;DHT22;12115;47.128;15.422;2023-03-31T00:03:35;8.60;99.90
23869;DHT22;12115;47.128;15.422;2023-03-31T00:06:05;8.60;99.90
23869;DHT22;12115;47.128;15.422;2023-03-31T00:08:33;8.60;99.90
23869;DHT22;12115;47.128;15.422;2023-03-31T00:11:05;8.50;99.90
23869;DHT22;12115;47.128;15.422;2023-03-31T00:13:35;8.50;99.90
23869;DHT22;12115;47.128;15.422;2023-03-31T00:16:07;8.50;99.90
23869;DHT22;12115;47.128;15.422;2023-03-31T00:18:36;8.40;99.90
23869;DHT22;12115;47.128;15.422;2023-03-31T00:21:13;8.40;99.90
23869;DHT22;12115;47.128;15.422;2023-03-31T00:24:02;8.30;99.90
23869;DHT22;12115;47.128;15.422;2023-03-31T00:26:32;8.20;99.90
23869;DHT22;12115;47.128;15.422;2023-03-31T00:29:00;8.20;99.90
23869;DHT22;12115;47.128;15.422;2023-03-31T00:31:27;8.20;99.90
23869;DHT22;12115;47.128;15.422;2023-03-31T00:33:56;8.10;99.90
23869;DHT22;12115;47.128;15.422;2023-03-31T00:36:24;8.10;99.90
23869;DHT22;12115;47.128;15.422;2023-03-31T00:39:00;8.20;99.90
23869;DHT22;12115;47.128;15.422;2023-03-31T00:41:36;8.10;99.90
23869;DHT22;12115;47.128;15.422;2023-03-31T00:47:14;8.10;99.90
23869;DHT22;12115;47.128;15.422;2023-03-31T00:49:46;8.10;99.90
23869;DHT22;12115;47.128;15.422;2023-03-31T00:54:48;8.00;99.90
23869;DHT22;12115;47.128;15.422;2023-03-31T00:57:42;8.00;99.90
23869;DHT22;12115;47.128;15.422;2023-03-31T01:00:15;8.00;99.90
23869;DHT22;12115;47.128;15.422;2023-03-31T01:02:47;8.00;99.90
23869;DHT22;12115;47.128;15.422;2023-03-31T01:05:46;8.00;99.90
23869;DHT22;12115;47.128;15.422;2023-03-31T01:08:17;8.00;99.90
23869;DHT22;12115;47.128;15.422;2023-03-31T01:10:50;8.00;99.90
23869;DHT22;12115;47.128;15.422;2023-03-31T01:13:19;8.00;99.90
23869;DHT22;12115;47.128;15.422;2023-03-31T01:15:47;8.00;99.90
23869;DHT22;12115;47.128;15.422;2023-03-31T01:18:39;7.90;99.90
23869;DHT22;12115;47.128;15.422;2023-03-31T01:27:26;7.90;99.90
23869;DHT22;12115;47.128;15.422;2023-03-31T01:33:05;7.90;99.90
23869;DHT22;12115;47.128;15.422;2023-03-31T01:43:46;7.80;99.90
23869;DHT22;12115;47.128;15.422;2023-03-31T01:46:36;7.70;99.90
23869;DHT22;12115;47.128;15.422;2023-03-31T01:49:29;7.70;99.90
23869;DHT22;12115;47.128;15.422;2023-03-31T02:01:48;7.50;99.90
23869;DHT22;12115;47.128;15.422;2023-03-31T02:04:48;7.50;99.90
23869;DHT22;12115;47.128;15.422;2023-03-31T02:07:22;7.40;99.90
23869;DHT22;12115;47.128;15.422;2023-03-31T02:09:56;7.40;99.90
23869;DHT22;12115;47.128;15.422;2023-03-31T02:12:27;7.40;99.90
23869;DHT22;12115;47.128;15.422;2023-03-31T02:14:59;7.30;99.90
23869;DHT22;12115;47.128;15.422;2023-03-31T02:17:27;7.30;99.90
23869;DHT22;12115;47.128;15.422;2023-03-31T02:20:00;7.20;99.90
23869;DHT22;12115;47.128;15.422;2023-03-31T02:22:35;7.30;99.90
23869;DHT22;12115;47.128;15.422;2023-03-31T02:25:05;7.20;99.90
23869;DHT22;12115;47.128;15.422;2023-03-31T02:27:41;7.10;99.90
23869;DHT22;12115;47.128;15.422;2023-03-31T02:30:10;7.10;99.90
23869;DHT22;12115;47.128;15.422;2023-03-31T02:32:40;7.00;99.90
23869;DHT22;12115;47.128;15.422;2023-03-31T02:35:17;7.00;99.90
23869;DHT22;12115;47.128;15.422;2023-03-31T02:37:45;6.90;99.90
23869;DHT22;12115;47.128;15.422;2023-03-31T02:40:18;6.90;99.90
23869;DHT22;12115;47.128;15.422;2023-03-31T02:42:46;6.90;99.90
23869;DHT22;12115;47.128;15.422;2023-03-31T02:56:49;6.80;99.90
23869;DHT22;12115;47.128;15.422;2023-03-31T03:08:08;6.50;99.90
23869;DHT22;12115;47.128;15.422;2023-03-31T03:13:50;6.50;99.90
23869;DHT22;12115;47.128;15.422;2023-03-31T03:16:41;6.50;99.90
23869;DHT22;12115;47.128;15.422;2023-03-31T03:22:02;6.40;99.90
23869;DHT22;12115;47.128;15.422;2023-03-31T03:24:31;6.40;99.90
23869;DHT22;12115;47.128;15.422;2023-03-31T03:27:01;6.30;99.90
23869;DHT22;12115;47.128;15.422;2023-03-31T03:29:28;6.30;99.90
23869;DHT22;12115;47.128;15.422;2023-03-31T03:31:55;6.30;99.90
23869;DHT22;12115;47.128;15.422;2023-03-31T03:34:23;6.20;99.90
23869;DHT22;12115;47.128;15.422;2023-03-31T03:36:51;6.20;99.90
23869;DHT22;12115;47.128;15.422;2023-03-31T03:39:19;6.20;99.90
23869;DHT22;12115;47.128;15.422;2023-03-31T03:41:46;6.20;99.90
23869;DHT22;12115;47.128;15.422;2023-03-31T03:44:13;6.10;99.90
23869;DHT22;12115;47.128;15.422;2023-03-31T03:46:41;6.10;99.90
23869;DHT22;12115;47.128;15.422;2023-03-31T03:49:08;6.10;99.90
23869;DHT22;12115;47.128;15.422;2023-03-31T03:51:36;6.00;99.90
23869;DHT22;12115;47.128;15.422;2023-03-31T03:54:03;6.00;99.90
23869;DHT22;12115;47.128;15.422;2023-03-31T03:56:31;6.00;99.90
23869;DHT22;12115;47.128;15.422;2023-03-31T03:58:58;6.00;99.90
23869;DHT22;12115;47.128;15.422;2023-03-31T04:01:25;5.90;99.90
23869;DHT22;12115;47.128;15.422;2023-03-31T04:03:52;5.80;99.90
23869;DHT22;12115;47.128;15.422;2023-03-31T04:06:20;5.80;99.90
23869;DHT22;12115;47.128;15.422;2023-03-31T04:08:47;5.70;99.90
23869;DHT22;12115;47.128;15.422;2023-03-31T04:11:17;5.60;99.90
23869;DHT22;12115;47.128;15.422;2023-03-31T04:13:46;5.60;99.90
23869;DHT22;12115;47.128;15.422;2023-03-31T04:16:22;5.60;99.90
23869;DHT22;12115;47.128;15.422;2023-03-31T04:18:54;5.60;99.90
23869;DHT22;12115;47.128;15.422;2023-03-31T04:21:25;5.60;99.90
23869;DHT22;12115;47.128;15.422;2023-03-31T04:24:17;5.50;99.90
23869;DHT22;12115;47.128;15.422;2023-03-31T04:26:47;5.50;99.90
23869;DHT22;12115;47.128;15.422;2023-03-31T04:29:17;5.50;99.90
23869;DHT22;12115;47.128;15.422;2023-03-31T04:31:46;5.50;99.90
23869;DHT22;12115;47.128;15.422;2023-03-31T04:34:14;5.40;99.90
23869;DHT22;12115;47.128;15.422;2023-03-31T04:36:43;5.40;99.90
23869;DHT22;12115;47.128;15.422;2023-03-31T04:39:16;5.40;99.90
23869;DHT22;12115;47.128;15.422;2023-03-31T04:41:44;5.30;99.90
23869;DHT22;12115;47.128;15.422;2023-03-31T04:44:11;5.30;99.90
23869;DHT22;12115;47.128;15.422;2023-03-31T04:46:38;5.40;99.90
23869;DHT22;12115;47.128;15.422;2023-03-31T04:49:09;5.30;99.90
23869;DHT22;12115;47.128;15.422;2023-03-31T04:51:36;5.30;99.90
23869;DHT22;12115;47.128;15.422;2023-03-31T04:54:13;5.20;99.90
23869;DHT22;12115;47.128;15.422;2023-03-31T04:56:41;5.20;99.90
23869;DHT22;12115;47.128;15.422;2023-03-31T04:59:09;5.20;99.90
23869;DHT22;12115;47.128;15.422;2023-03-31T05:01:37;5.20;99.90
23869;DHT22;12115;47.128;15.422;2023-03-31T05:04:04;5.20;99.90
23869;DHT22;12115;47.128;15.422;2023-03-31T05:06:32;5.20;99.90
23869;DHT22;12115;47.128;15.422;2023-03-31T05:09:00;5.30;99.90
23869;DHT22;12115;47.128;15.422;2023-03-31T05:11:30;5.20;99.90
23869;DHT22;12115;47.128;15.422;2023-03-31T05:13:57;5.20;99.90
23869;DHT22;12115;47.128;15.422;2023-03-31T05:16:25;5.20;99.90
23869;DHT22;12115;47.128;15.422;2023-03-31T05:18:53;5.20;99.90
23869;DHT22;12115;47.128;15.422;2023-03-31T05:21:21;5.20;99.90
23869;DHT22;12115;47.128;15.422;2023-03-31T05:23:49;5.20;99.90
23869;DHT22;12115;47.128;15.422;2023-03-31T05:26:17;5.30;99.90
23869;DHT22;12115;47.128;15.422;2023-03-31T05:29:09;5.30;99.90
23869;DHT22;12115;47.128;15.422;2023-03-31T05:31:36;5.20;99.90
23869;DHT22;12115;47.128;15.422;2023-03-31T05:34:04;5.20;99.90
23869;DHT22;12115;47.128;15.422;2023-03-31T05:36:31;5.30;99.90
23869;DHT22;12115;47.128;15.422;2023-03-31T05:38:58;5.30;99.90
23869;DHT22;12115;47.128;15.422;2023-03-31T05:41:32;5.30;99.90
23869;DHT22;12115;47.128;15.422;2023-03-31T05:43:59;5.30;99.90
23869;DHT22;12115;47.128;15.422;2023-03-31T05:46:28;5.30;99.90
23869;DHT22;12115;47.128;15.422;2023-03-31T05:48:55;5.30;99.90
23869;DHT22;12115;47.128;15.422;2023-03-31T05:51:22;5.40;99.90
23869;DHT22;12115;47.128;15.422;2023-03-31T05:53:50;5.40;99.90
23869;DHT22;12115;47.128;15.422;2023-03-31T05:56:17;5.50;99.90
23869;DHT22;12115;47.128;15.422;2023-03-31T05:58:44;5.50;99.90
23869;DHT22;12115;47.128;15.422;2023-03-31T06:01:14;5.50;99.90
23869;DHT22;12115;47.128;15.422;2023-03-31T06:04:11;5.50;99.90
23869;DHT22;12115;47.128;15.422;2023-03-31T06:06:42;5.50;99.90
23869;DHT22;12115;47.128;15.422;2023-03-31T06:09:10;5.50;99.90
23869;DHT22;12115;47.128;15.422;2023-03-31T06:12:00;5.60;99.90
23869;DHT22;12115;47.128;15.422;2023-03-31T06:14:28;5.60;99.90
23869;DHT22;12115;47.128;15.422;2023-03-31T06:17:20;5.60;99.90
23869;DHT22;12115;47.128;15.422;2023-03-31T06:19:47;5.70;99.90
23869;DHT22;12115;47.128;15.422;2023-03-31T06:22:24;5.70;99.90
23869;DHT22;12115;47.128;15.422;2023-03-31T06:24:53;5.70;99.90
23869;DHT22;12115;47.128;15.422;2023-03-31T06:27:29;5.80;99.90
23869;DHT22;12115;47.128;15.422;2023-03-31T06:29:57;5.70;99.90
23869;DHT22;12115;47.128;15.422;2023-03-31T06:32:24;5.80;99.90
23869;DHT22;12115;47.128;15.422;2023-03-31T06:34:52;5.80;99.90
23869;DHT22;12115;47.128;15.422;2023-03-31T06:40:49;5.90;99.90
23869;DHT22;12115;47.128;15.422;2023-03-31T06:43:17;6.00;99.90
23869;DHT22;12115;47.128;15.422;2023-03-31T06:46:10;6.00;99.90
23869;DHT22;12115;47.128;15.422;2023-03-31T06:48:38;6.10;99.90
23869;DHT22;12115;47.128;15.422;2023-03-31T06:51:06;6.30;99.90
23869;DHT22;12115;47.128;15.422;2023-03-31T06:53:34;6.40;99.90
23869;DHT22;12115;47.128;15.422;2023-03-31T06:56:27;6.50;99.90
23869;DHT22;12115;47.128;15.422;2023-03-31T06:58:55;6.60;99.90
23869;DHT22;12115;47.128;15.422;2023-03-31T07:01:23;6.70;99.90
23869;DHT22;12115;47.128;15.422;2023-03-31T07:03:56;7.00;99.90
23869;DHT22;12115;47.128;15.422;2023-03-31T07:06:23;7.10;99.90
23869;DHT22;12115;47.128;15.422;2023-03-31T07:08:50;7.10;99.90
23869;DHT22;12115;47.128;15.422;2023-03-31T07:11:18;7.30;99.90
23869;DHT22;12115;47.128;15.422;2023-03-31T07:13:47;7.40;99.90
23869;DHT22;12115;47.128;15.422;2023-03-31T07:16:14;7.50;99.90
23869;DHT22;12115;47.128;15.422;2023-03-31T07:18:41;7.60;99.90
23869;DHT22;12115;47.128;15.422;2023-03-31T07:21:14;7.90;99.90
23869;DHT22;12115;47.128;15.422;2023-03-31T07:23:41;8.00;99.90
23869;DHT22;12115;47.128;15.422;2023-03-31T07:26:11;8.20;99.90
23869;DHT22;12115;47.128;15.422;2023-03-31T07:28:40;8.30;99.90
23869;DHT22;12115;47.128;15.422;2023-03-31T07:31:12;8.40;99.90
23869;DHT22;12115;47.128;15.422;2023-03-31T07:37:06;8.80;99.90
23869;DHT22;12115;47.128;15.422;2023-03-31T07:39:34;8.90;99.90
23869;DHT22;12115;47.128;15.422;2023-03-31T07:42:05;9.00;99.90
23869;DHT22;12115;47.128;15.422;2023-03-31T07:44:41;9.00;99.90
23869;DHT22;12115;47.128;15.422;2023-03-31T07:47:09;9.20;99.90
23869;DHT22;12115;47.128;15.422;2023-03-31T07:49:37;9.30;99.90
23869;DHT22;12115;47.128;15.422;2023-03-31T07:52:18;9.50;99.90
23869;DHT22;12115;47.128;15.422;2023-03-31T07:54:45;9.70;99.90
23869;DHT22;12115;47.128;15.422;2023-03-31T07:57:13;10.10;99.90
23869;DHT22;12115;47.128;15.422;2023-03-31T07:59:42;10.20;99.90
23869;DHT22;12115;47.128;15.422;2023-03-31T08:02:11;10.30;99.90
23869;DHT22;12115;47.128;15.422;2023-03-31T08:04:39;10.40;99.90
23869;DHT22;12115;47.128;15.422;2023-03-31T08:07:22;10.60;99.90
23869;DHT22;12115;47.128;15.422;2023-03-31T08:09:49;10.80;99.90
23869;DHT22;12115;47.128;15.422;2023-03-31T08:12:17;10.90;99.90
23869;DHT22;12115;47.128;15.422;2023-03-31T08:15:09;11.00;99.90
23869;DHT22;12115;47.128;15.422;2023-03-31T08:17:37;11.00;99.90
23869;DHT22;12115;47.128;15.422;2023-03-31T08:20:06;11.10;99.90
23869;DHT22;12115;47.128;15.422;2023-03-31T08:22:37;11.10;99.90
23869;DHT22;12115;47.128;15.422;2023-03-31T08:25:06;11.20;99.90
23869;DHT22;12115;47.128;15.422;2023-03-31T08:27:36;11.20;99.90
23869;DHT22;12115;47.128;15.422;2023-03-31T08:30:05;11.30;99.90
23869;DHT22;12115;47.128;15.422;2023-03-31T08:32:59;11.50;99.90
23869;DHT22;12115;47.128;15.422;2023-03-31T08:35:26;11.60;99.90
23869;DHT22;12115;47.128;15.422;2023-03-31T08:37:53;11.70;99.90
23869;DHT22;12115;47.128;15.422;2023-03-31T08:40:27;12.00;99.90
23869;DHT22;12115;47.128;15.422;2023-03-31T08:43:05;12.10;99.90
23869;DHT22;12115;47.128;15.422;2023-03-31T08:45:42;12.20;99.90
23869;DHT22;12115;47.128;15.422;2023-03-31T08:48:29;12.20;99.90
23869;DHT22;12115;47.128;15.422;2023-03-31T08:51:04;12.50;99.90
23869;DHT22;12115;47.128;15.422;2023-03-31T08:53:35;12.80;99.90
23869;DHT22;12115;47.128;15.422;2023-03-31T08:56:21;13.00;99.90
23869;DHT22;12115;47.128;15.422;2023-03-31T08:58:55;13.10;99.90
23869;DHT22;12115;47.128;15.422;2023-03-31T09:01:49;13.20;99.90
23869;DHT22;12115;47.128;15.422;2023-03-31T09:05:08;13.30;99.90
23869;DHT22;12115;47.128;15.422;2023-03-31T09:13:42;13.50;99.90
23869;DHT22;12115;47.128;15.422;2023-03-31T09:16:15;13.60;99.90
23869;DHT22;12115;47.128;15.422;2023-03-31T09:18:44;13.80;99.90
23869;DHT22;12115;47.128;15.422;2023-03-31T09:27:04;14.60;99.90
23869;DHT22;12115;47.128;15.422;2023-03-31T09:29:42;14.70;99.90
23869;DHT22;12115;47.128;15.422;2023-03-31T09:32:23;14.90;99.90
23869;DHT22;12115;47.128;15.422;2023-03-31T09:34:55;15.00;99.90
23869;DHT22;12115;47.128;15.422;2023-03-31T09:37:27;15.10;99.90
23869;DHT22;12115;47.128;15.422;2023-03-31T09:39:59;15.10;99.90
23869;DHT22;12115;47.128;15.422;2023-03-31T09:42:27;15.10;99.90
23869;DHT22;12115;47.128;15.422;2023-03-31T09:44:55;15.20;99.90
23869;DHT22;12115;47.128;15.422;2023-03-31T09:47:41;15.30;99.90
23869;DHT22;12115;47.128;15.422;2023-03-31T09:50:11;15.50;99.90
23869;DHT22;12115;47.128;15.422;2023-03-31T09:52:58;15.40;99.90
23869;DHT22;12115;47.128;15.422;2023-03-31T09:55:46;15.50;99.90
23869;DHT22;12115;47.128;15.422;2023-03-31T09:58:20;15.70;99.90
23869;DHT22;12115;47.128;15.422;2023-03-31T10:01:05;15.80;99.90
23869;DHT22;12115;47.128;15.422;2023-03-31T10:03:51;15.90;99.90
23869;DHT22;12115;47.128;15.422;2023-03-31T10:06:21;15.70;99.90
23869;DHT22;12115;47.128;15.422;2023-03-31T10:09:09;16.00;99.90
23869;DHT22;12115;47.128;15.422;2023-03-31T10:11:37;16.10;99.90
23869;DHT22;12115;47.128;15.422;2023-03-31T10:14:13;16.20;99.90
23869;DHT22;12115;47.128;15.422;2023-03-31T10:16:46;16.10;99.90
23869;DHT22;12115;47.128;15.422;2023-03-31T10:25:15;15.60;99.90
23869;DHT22;12115;47.128;15.422;2023-03-31T10:27:48;15.60;99.90
23869;DHT22;12115;47.128;15.422;2023-03-31T10:30:25;15.50;99.90
23869;DHT22;12115;47.128;15.422;2023-03-31T10:33:04;15.50;99.90
23869;DHT22;12115;47.128;15.422;2023-03-31T10:35:58;15.40;99.90
23869;DHT22;12115;47.128;15.422;2023-03-31T10:38:33;15.40;99.90
23869;DHT22;12115;47.128;15.422;2023-03-31T10:41:01;15.40;99.90
23869;DHT22;12115;47.128;15.422;2023-03-31T10:43:52;15.40;99.90
23869;DHT22;12115;47.128;15.422;2023-03-31T10:46:20;15.40;99.90
23869;DHT22;12115;47.128;15.422;2023-03-31T10:49:25;15.40;99.90
23869;DHT22;12115;47.128;15.422;2023-03-31T10:51:57;15.30;99.90
23869;DHT22;12115;47.128;15.422;2023-03-31T10:54:26;15.30;99.90
23869;DHT22;12115;47.128;15.422;2023-03-31T10:57:03;15.40;99.90
23869;DHT22;12115;47.128;15.422;2023-03-31T11:19:46;15.70;99.90
23869;DHT22;12115;47.128;15.422;2023-03-31T11:22:32;15.70;99.90
23869;DHT22;12115;47.128;15.422;2023-03-31T11:30:45;16.20;99.90
23869;DHT22;12115;47.128;15.422;2023-03-31T11:36:26;16.30;99.90
23869;DHT22;12115;47.128;15.422;2023-03-31T11:39:13;16.30;99.70
23869;DHT22;12115;47.128;15.422;2023-03-31T11:41:49;16.00;99.30
23869;DHT22;12115;47.128;15.422;2023-03-31T11:44:19;16.00;99.50
23869;DHT22;12115;47.128;15.422;2023-03-31T11:46:57;16.20;99.90
23869;DHT22;12115;47.128;15.422;2023-03-31T11:49:38;16.20;99.30
23869;DHT22;12115;47.128;15.422;2023-03-31T11:52:12;16.20;99.60
23869;DHT22;12115;47.128;15.422;2023-03-31T11:55:04;16.40;99.50
23869;DHT22;12115;47.128;15.422;2023-03-31T12:00:22;16.60;99.90
23869;DHT22;12115;47.128;15.422;2023-03-31T12:03:11;16.80;99.90
23869;DHT22;12115;47.128;15.422;2023-03-31T12:08:45;16.90;99.10
23869;DHT22;12115;47.128;15.422;2023-03-31T12:16:45;17.20;98.30
23869;DHT22;12115;47.128;15.422;2023-03-31T12:19:17;17.30;98.50
23869;DHT22;12115;47.128;15.422;2023-03-31T12:21:59;17.40;98.50
23869;DHT22;12115;47.128;15.422;2023-03-31T12:24:30;17.50;97.50
23869;DHT22;12115;47.128;15.422;2023-03-31T12:29:51;17.60;97.00
23869;DHT22;12115;47.128;15.422;2023-03-31T12:32:29;17.70;97.20
23869;DHT22;12115;47.128;15.422;2023-03-31T12:35:16;17.90;97.00
23869;DHT22;12115;47.128;15.422;2023-03-31T12:43:45;18.10;95.60
23869;DHT22;12115;47.128;15.422;2023-03-31T13:01:20;17.90;94.40
23869;DHT22;12115;47.128;15.422;2023-03-31T13:08:59;17.90;94.50
23869;DHT22;12115;47.128;15.422;2023-03-31T13:11:44;17.80;93.60
23869;DHT22;12115;47.128;15.422;2023-03-31T13:14:19;17.60;93.30
23869;DHT22;12115;47.128;15.422;2023-03-31T13:16:48;17.50;94.40
23869;DHT22;12115;47.128;15.422;2023-03-31T13:19:32;17.50;94.00
23869;DHT22;12115;47.128;15.422;2023-03-31T13:22:03;17.50;94.40
23869;DHT22;12115;47.128;15.422;2023-03-31T13:24:33;17.60;94.10
23869;DHT22;12115;47.128;15.422;2023-03-31T13:27:33;17.50;94.00
23869;DHT22;12115;47.128;15.422;2023-03-31T13:30:00;17.50;94.00
23869;DHT22;12115;47.128;15.422;2023-03-31T13:32:28;17.50;93.90
23869;DHT22;12115;47.128;15.422;2023-03-31T13:35:04;17.50;94.10
23869;DHT22;12115;47.128;15.422;2023-03-31T13:43:24;17.30;93.80
23869;DHT22;12115;47.128;15.422;2023-03-31T13:51:58;17.00;94.20
23869;DHT22;12115;47.128;15.422;2023-03-31T14:00:27;16.80;94.30
23869;DHT22;12115;47.128;15.422;2023-03-31T14:03:16;16.80;94.20
23869;DHT22;12115;47.128;15.422;2023-03-31T14:06:08;16.80;94.60
23869;DHT22;12115;47.128;15.422;2023-03-31T14:08:51;16.80;94.40
23869;DHT22;12115;47.128;15.422;2023-03-31T14:11:30;16.80;94.10
23869;DHT22;12115;47.128;15.422;2023-03-31T14:22:51;16.60;94.70
23869;DHT22;12115;47.128;15.422;2023-03-31T14:37:14;16.30;94.00
23869;DHT22;12115;47.128;15.422;2023-03-31T14:39:49;16.20;93.90
23869;DHT22;12115;47.128;15.422;2023-03-31T14:42:21;16.30;94.40
23869;DHT22;12115;47.128;15.422;2023-03-31T14:44:55;16.30;94.10
23869;DHT22;12115;47.128;15.422;2023-03-31T14:47:26;16.30;94.10
23869;DHT22;12115;47.128;15.422;2023-03-31T14:50:30;16.30;94.30
23869;DHT22;12115;47.128;15.422;2023-03-31T14:53:00;16.40;94.60
23869;DHT22;12115;47.128;15.422;2023-03-31T14:55:30;16.40;94.40
23869;DHT22;12115;47.128;15.422;2023-03-31T14:58:54;16.30;94.10
23869;DHT22;12115;47.128;15.422;2023-03-31T15:01:24;16.30;94.50
23869;DHT22;12115;47.128;15.422;2023-03-31T15:03:54;16.30;94.50
23869;DHT22;12115;47.128;15.422;2023-03-31T15:06:25;16.30;94.40
23869;DHT22;12115;47.128;15.422;2023-03-31T15:08:56;16.40;94.80
23869;DHT22;12115;47.128;15.422;2023-03-31T15:11:23;16.30;94.60
23869;DHT22;12115;47.128;15.422;2023-03-31T15:13:54;16.30;94.40
23869;DHT22;12115;47.128;15.422;2023-03-31T15:16:42;16.30;94.30
23869;DHT22;12115;47.128;15.422;2023-03-31T15:19:23;16.30;94.50
23869;DHT22;12115;47.128;15.422;2023-03-31T15:22:07;16.30;94.40
23869;DHT22;12115;47.128;15.422;2023-03-31T15:24:36;16.30;94.50
23869;DHT22;12115;47.128;15.422;2023-03-31T15:27:31;16.20;94.70
23869;DHT22;12115;47.128;15.422;2023-03-31T15:30:18;16.20;95.00
23869;DHT22;12115;47.128;15.422;2023-03-31T15:32:46;16.10;94.70
23869;DHT22;12115;47.128;15.422;2023-03-31T15:35:34;16.10;94.90
23869;DHT22;12115;47.128;15.422;2023-03-31T15:38:03;16.10;95.10
23869;DHT22;12115;47.128;15.422;2023-03-31T15:40:36;16.00;94.80
23869;DHT22;12115;47.128;15.422;2023-03-31T15:45:54;16.00;95.10
23869;DHT22;12115;47.128;15.422;2023-03-31T15:48:47;16.00;95.00
23869;DHT22;12115;47.128;15.422;2023-03-31T15:51:38;15.90;95.20
23869;DHT22;12115;47.128;15.422;2023-03-31T15:57:08;15.90;95.10
23869;DHT22;12115;47.128;15.422;2023-03-31T15:59:48;15.80;94.90
23869;DHT22;12115;47.128;15.422;2023-03-31T16:02:24;15.70;95.10
23869;DHT22;12115;47.128;15.422;2023-03-31T16:04:55;15.70;95.10
23869;DHT22;12115;47.128;15.422;2023-03-31T16:07:27;15.80;95.10
23869;DHT22;12115;47.128;15.422;2023-03-31T16:10:10;15.70;95.10
23869;DHT22;12115;47.128;15.422;2023-03-31T16:12:53;15.70;95.40
23869;DHT22;12115;47.128;15.422;2023-03-31T16:15:32;15.60;96.20
23869;DHT22;12115;47.128;15.422;2023-03-31T16:18:14;15.60;96.10
23869;DHT22;12115;47.128;15.422;2023-03-31T16:20:50;15.60;95.80
23869;DHT22;12115;47.128;15.422;2023-03-31T16:23:26;15.60;95.80
23869;DHT22;12115;47.128;15.422;2023-03-31T16:25:58;15.50;95.90
23869;DHT22;12115;47.128;15.422;2023-03-31T16:28:48;15.50;95.90
23869;DHT22;12115;47.128;15.422;2023-03-31T16:31:37;15.50;96.20
23869;DHT22;12115;47.128;15.422;2023-03-31T16:34:07;15.40;96.50
23869;DHT22;12115;47.128;15.422;2023-03-31T16:36:35;15.30;96.70
23869;DHT22;12115;47.128;15.422;2023-03-31T16:39:04;15.30;97.00
23869;DHT22;12115;47.128;15.422;2023-03-31T16:41:34;15.30;97.50
23869;DHT22;12115;47.128;15.422;2023-03-31T16:44:02;15.10;99.10
23869;DHT22;12115;47.128;15.422;2023-03-31T16:46:29;14.70;99.90
23869;DHT22;12115;47.128;15.422;2023-03-31T16:48:57;14.60;99.90
23869;DHT22;12115;47.128;15.422;2023-03-31T16:51:25;14.50;99.90
23869;DHT22;12115;47.128;15.422;2023-03-31T16:53:52;14.20;99.90
23869;DHT22;12115;47.128;15.422;2023-03-31T16:56:20;14.00;99.90
23869;DHT22;12115;47.128;15.422;2023-03-31T16:58:48;13.70;99.90
23869;DHT22;12115;47.128;15.422;2023-03-31T17:01:16;13.60;99.90
23869;DHT22;12115;47.128;15.422;2023-03-31T17:03:43;13.30;99.90
23869;DHT22;12115;47.128;15.422;2023-03-31T17:06:13;13.00;99.90
23869;DHT22;12115;47.128;15.422;2023-03-31T17:08:41;12.70;99.90
23869;DHT22;12115;47.128;15.422;2023-03-31T17:11:11;12.60;99.90
23869;DHT22;12115;47.128;15.422;2023-03-31T17:13:41;12.60;99.90
23869;DHT22;12115;47.128;15.422;2023-03-31T17:16:11;12.50;99.90
23869;DHT22;12115;47.128;15.422;2023-03-31T17:18:55;12.50;99.90
23869;DHT22;12115;47.128;15.422;2023-03-31T17:21:23;12.30;99.90
23869;DHT22;12115;47.128;15.422;2023-03-31T17:23:52;12.20;99.90
23869;DHT22;12115;47.128;15.422;2023-03-31T17:26:23;12.10;99.90
23869;DHT22;12115;47.128;15.422;2023-03-31T17:28:50;12.20;99.90
23869;DHT22;12115;47.128;15.422;2023-03-31T17:31:19;12.20;99.90
23869;DHT22;12115;47.128;15.422;2023-03-31T17:33:47;12.10;99.90
23869;DHT22;12115;47.128;15.422;2023-03-31T17:36:15;12.00;99.90
23869;DHT22;12115;47.128;15.422;2023-03-31T17:38:44;11.90;99.90
23869;DHT22;12115;47.128;15.422;2023-03-31T17:41:12;11.80;99.90
23869;DHT22;12115;47.128;15.422;2023-03-31T17:43:49;11.70;99.90
23869;DHT22;12115;47.128;15.422;2023-03-31T17:46:17;11.70;99.90
23869;DHT22;12115;47.128;15.422;2023-03-31T17:48:45;11.70;99.90
23869;DHT22;12115;47.128;15.422;2023-03-31T17:51:16;11.70;99.90
23869;DHT22;12115;47.128;15.422;2023-03-31T17:53:46;11.70;99.90
23869;DHT22;12115;47.128;15.422;2023-03-31T17:56:15;11.60;99.90
23869;DHT22;12115;47.128;15.422;2023-03-31T17:58:44;11.50;99.90
23869;DHT22;12115;47.128;15.422;2023-03-31T18:01:12;11.40;99.90
23869;DHT22;12115;47.128;15.422;2023-03-31T18:03:41;11.30;99.90
23869;DHT22;12115;47.128;15.422;2023-03-31T18:06:11;11.20;99.90
23869;DHT22;12115;47.128;15.422;2023-03-31T18:08:40;11.30;99.90
23869;DHT22;12115;47.128;15.422;2023-03-31T18:11:10;11.30;99.90
23869;DHT22;12115;47.128;15.422;2023-03-31T18:13:39;11.30;99.90
23869;DHT22;12115;47.128;15.422;2023-03-31T18:16:12;11.30;99.90
23869;DHT22;12115;47.128;15.422;2023-03-31T18:18:43;11.20;99.90
23869;DHT22;12115;47.128;15.422;2023-03-31T18:21:12;11.10;99.90
23869;DHT22;12115;47.128;15.422;2023-03-31T18:23:41;11.00;99.90
23869;DHT22;12115;47.128;15.422;2023-03-31T18:26:10;11.00;99.90
23869;DHT22;12115;47.128;15.422;2023-03-31T18:29:02;11.00;99.90
23869;DHT22;12115;47.128;15.422;2023-03-31T18:31:31;10.90;99.90
23869;DHT22;12115;47.128;15.422;2023-03-31T18:33:59;10.80;99.90
23869;DHT22;12115;47.128;15.422;2023-03-31T18:36:27;10.90;99.90
23869;DHT22;12115;47.128;15.422;2023-03-31T18:38:58;10.90;99.90
23869;DHT22;12115;47.128;15.422;2023-03-31T18:41:28;10.80;99.90
23869;DHT22;12115;47.128;15.422;2023-03-31T18:43:57;10.80;99.90
23869;DHT22;12115;47.128;15.422;2023-03-31T18:46:25;10.70;99.90
23869;DHT22;12115;47.128;15.422;2023-03-31T18:48:53;10.70;99.90
23869;DHT22;12115;47.128;15.422;2023-03-31T18:51:22;10.70;99.90
23869;DHT22;12115;47.128;15.422;2023-03-31T18:53:50;10.70;99.90
23869;DHT22;12115;47.128;15.422;2023-03-31T18:56:20;10.70;99.90
23869;DHT22;12115;47.128;15.422;2023-03-31T18:58:55;10.50;99.90
23869;DHT22;12115;47.128;15.422;2023-03-31T19:01:24;10.50;99.90
23869;DHT22;12115;47.128;15.422;2023-03-31T19:03:59;10.50;99.90
23869;DHT22;12115;47.128;15.422;2023-03-31T19:06:27;10.40;99.90
23869;DHT22;12115;47.128;15.422;2023-03-31T19:08:58;10.40;99.90
23869;DHT22;12115;47.128;15.422;2023-03-31T19:11:27;10.40;99.90
23869;DHT22;12115;47.128;15.422;2023-03-31T19:13:55;10.30;99.90
23869;DHT22;12115;47.128;15.422;2023-03-31T19:16:23;10.20;99.90
23869;DHT22;12115;47.128;15.422;2023-03-31T19:18:57;10.30;99.90